Airfield :
LOGIN :

Register | Disclaimer

   EN    FR    IT 

 










Legend :    VFR   Marginal VFR   IFR   Intensive IFR   Very Intensive IFR
Visi :
Ceiling :
>= 8 km
>= 3000ft
5 to 8 km
1000 to 3000 ft
1500m to 5 km
500 to 1000 ft
800 to 1500m
200 to 500 ft
< 800m
< 200 ft
Symbols :   Thunderstorms  Fog  Heavy snow  Heavy precipitations  Wind > 20 kt
SIGMETs :     Misc.  Thunderstorms  Icing  Turbulence  Mountain Waves  Volcanic Ashes






- Airport Elevation : 989 ft
- IATA code : TRN


LIMF - Torino Caselle

CURRENT METAR :
  • 300220Z 20001KT 0400 R36/0550U FG NSC 01/01 Q1017

EXPIRED METARs :
  • 300150Z VRB01KT 0200 R36/0325N FG NSC 02/01 Q1017
  • 300120Z VRB01KT 0300 R36/0350N FG NSC 02/01 Q1017
  • 300020Z VRB01KT 3000 BR NSC 01/01 Q1017

TAF AMD TAF LIMF
Valid from the 30 at 01:00 until the 01 at 00:00 UTC


300157Z 3001/3024 VRB04KT 0300 FG SCT040
TEMPO 3001/3006 1200 BR
BECMG 3006/3008 2000
BECMG 3010/3012 6000



MET'MAP, your aeronautical weather chart ! - Copyright ORBIFLY December 2007 - Disclaimer

ORBIFLY MET'MAP TEAM :

Programming & Development : Alexandra Zaïnal
Original concept : Baudouin d'Aumeries
Technical & hardware support : Manuel Goepfert
Assistance : Marc-Olivier Méhu




SOURCES & CREDITS :

   NOAA